sensor_id;sensor_type;location;lat;lon;timestamp;P1;durP1;ratioP1;P2;durP2;ratioP2
4311;SDS011;2169;49.086;9.284;2022-08-03T00:01:02;1.40;;;1.17;;
4311;SDS011;2169;49.086;9.284;2022-08-03T00:03:31;1.20;;;1.17;;
4311;SDS011;2169;49.086;9.284;2022-08-03T00:05:58;1.40;;;1.20;;
4311;SDS011;2169;49.086;9.284;2022-08-03T00:08:25;1.77;;;1.67;;
4311;SDS011;2169;49.086;9.284;2022-08-03T00:10:52;1.27;;;1.27;;
4311;SDS011;2169;49.086;9.284;2022-08-03T00:13:19;1.30;;;1.13;;
4311;SDS011;2169;49.086;9.284;2022-08-03T00:15:46;1.30;;;1.20;;
4311;SDS011;2169;49.086;9.284;2022-08-03T00:18:12;2.60;;;1.87;;
4311;SDS011;2169;49.086;9.284;2022-08-03T00:20:41;1.17;;;1.13;;
4311;SDS011;2169;49.086;9.284;2022-08-03T00:23:07;1.10;;;1.10;;
4311;SDS011;2169;49.086;9.284;2022-08-03T00:25:34;2.87;;;2.10;;
4311;SDS011;2169;49.086;9.284;2022-08-03T00:28:02;1.47;;;1.27;;
4311;SDS011;2169;49.086;9.284;2022-08-03T00:30:29;6.10;;;1.70;;
4311;SDS011;2169;49.086;9.284;2022-08-03T00:32:56;1.80;;;1.70;;
4311;SDS011;2169;49.086;9.284;2022-08-03T00:35:24;3.30;;;2.57;;
4311;SDS011;2169;49.086;9.284;2022-08-03T00:37:52;2.20;;;1.87;;
4311;SDS011;2169;49.086;9.284;2022-08-03T00:40:19;2.93;;;1.67;;
4311;SDS011;2169;49.086;9.284;2022-08-03T00:42:47;1.60;;;1.50;;
4311;SDS011;2169;49.086;9.284;2022-08-03T00:45:17;1.63;;;1.53;;
4311;SDS011;2169;49.086;9.284;2022-08-03T00:47:45;4.70;;;1.17;;
4311;SDS011;2169;49.086;9.284;2022-08-03T00:50:12;1.57;;;1.50;;
4311;SDS011;2169;49.086;9.284;2022-08-03T00:52:39;1.50;;;1.40;;
4311;SDS011;2169;49.086;9.284;2022-08-03T00:55:08;1.30;;;1.20;;
4311;SDS011;2169;49.086;9.284;2022-08-03T00:57:35;1.77;;;1.67;;
4311;SDS011;2169;49.086;9.284;2022-08-03T01:00:03;1.40;;;1.30;;
4311;SDS011;2169;49.086;9.284;2022-08-03T01:02:31;1.73;;;1.40;;
4311;SDS011;2169;49.086;9.284;2022-08-03T01:04:58;3.47;;;1.30;;
4311;SDS011;2169;49.086;9.284;2022-08-03T01:07:26;1.73;;;1.30;;
4311;SDS011;2169;49.086;9.284;2022-08-03T01:10:09;1.47;;;1.37;;
4311;SDS011;2169;49.086;9.284;2022-08-03T01:12:42;1.30;;;1.30;;
4311;SDS011;2169;49.086;9.284;2022-08-03T01:15:14;1.43;;;1.40;;
4311;SDS011;2169;49.086;9.284;2022-08-03T01:17:48;1.97;;;1.87;;
4311;SDS011;2169;49.086;9.284;2022-08-03T01:20:17;3.67;;;1.73;;
4311;SDS011;2169;49.086;9.284;2022-08-03T01:22:51;1.67;;;1.00;;
4311;SDS011;2169;49.086;9.284;2022-08-03T01:25:33;2.10;;;1.30;;
4311;SDS011;2169;49.086;9.284;2022-08-03T01:28:15;1.90;;;1.70;;
4311;SDS011;2169;49.086;9.284;2022-08-03T01:30:55;1.63;;;1.53;;
4311;SDS011;2169;49.086;9.284;2022-08-03T01:33:27;1.30;;;1.20;;
4311;SDS011;2169;49.086;9.284;2022-08-03T01:36:01;2.00;;;1.40;;
4311;SDS011;2169;49.086;9.284;2022-08-03T01:38:31;1.47;;;1.30;;
4311;SDS011;2169;49.086;9.284;2022-08-03T01:41:00;1.60;;;1.43;;
4311;SDS011;2169;49.086;9.284;2022-08-03T01:43:29;1.10;;;1.10;;
4311;SDS011;2169;49.086;9.284;2022-08-03T01:45:57;1.20;;;1.20;;
4311;SDS011;2169;49.086;9.284;2022-08-03T01:48:25;1.53;;;1.43;;
4311;SDS011;2169;49.086;9.284;2022-08-03T01:50:53;1.57;;;1.47;;
4311;SDS011;2169;49.086;9.284;2022-08-03T01:53:21;1.60;;;1.50;;
4311;SDS011;2169;49.086;9.284;2022-08-03T01:55:51;1.13;;;1.13;;
4311;SDS011;2169;49.086;9.284;2022-08-03T01:58:19;2.20;;;1.40;;
4311;SDS011;2169;49.086;9.284;2022-08-03T02:00:49;1.60;;;1.50;;
4311;SDS011;2169;49.086;9.284;2022-08-03T02:03:19;1.57;;;1.30;;
4311;SDS011;2169;49.086;9.284;2022-08-03T02:05:46;1.70;;;1.60;;
4311;SDS011;2169;49.086;9.284;2022-08-03T02:08:14;1.40;;;1.30;;
4311;SDS011;2169;49.086;9.284;2022-08-03T02:10:44;1.50;;;1.40;;
4311;SDS011;2169;49.086;9.284;2022-08-03T02:13:12;1.67;;;1.57;;
4311;SDS011;2169;49.086;9.284;2022-08-03T02:15:41;1.60;;;1.50;;
4311;SDS011;2169;49.086;9.284;2022-08-03T02:18:09;3.83;;;1.67;;
4311;SDS011;2169;49.086;9.284;2022-08-03T02:20:39;1.60;;;1.50;;
4311;SDS011;2169;49.086;9.284;2022-08-03T02:23:08;6.30;;;1.70;;
4311;SDS011;2169;49.086;9.284;2022-08-03T02:25:37;1.83;;;1.70;;
4311;SDS011;2169;49.086;9.284;2022-08-03T02:28:09;1.40;;;1.30;;
4311;SDS011;2169;49.086;9.284;2022-08-03T02:30:39;1.43;;;1.10;;
4311;SDS011;2169;49.086;9.284;2022-08-03T02:33:09;1.20;;;1.20;;
4311;SDS011;2169;49.086;9.284;2022-08-03T02:35:39;3.10;;;1.70;;
4311;SDS011;2169;49.086;9.284;2022-08-03T02:38:09;1.70;;;1.60;;
4311;SDS011;2169;49.086;9.284;2022-08-03T02:40:37;2.27;;;1.30;;
4311;SDS011;2169;49.086;9.284;2022-08-03T02:43:10;2.30;;;1.80;;
4311;SDS011;2169;49.086;9.284;2022-08-03T02:45:43;1.57;;;1.57;;
4311;SDS011;2169;49.086;9.284;2022-08-03T02:48:14;2.30;;;1.20;;
4311;SDS011;2169;49.086;9.284;2022-08-03T02:50:44;4.20;;;1.53;;
4311;SDS011;2169;49.086;9.284;2022-08-03T02:53:13;2.07;;;1.57;;
4311;SDS011;2169;49.086;9.284;2022-08-03T02:55:42;9.43;;;1.30;;
4311;SDS011;2169;49.086;9.284;2022-08-03T02:58:11;1.70;;;1.60;;
4311;SDS011;2169;49.086;9.284;2022-08-03T03:00:39;1.40;;;1.30;;
4311;SDS011;2169;49.086;9.284;2022-08-03T03:03:09;1.17;;;1.10;;
4311;SDS011;2169;49.086;9.284;2022-08-03T03:05:37;4.40;;;1.60;;
4311;SDS011;2169;49.086;9.284;2022-08-03T03:08:06;1.60;;;1.50;;
4311;SDS011;2169;49.086;9.284;2022-08-03T03:10:34;4.83;;;2.70;;
4311;SDS011;2169;49.086;9.284;2022-08-03T03:13:02;2.17;;;1.87;;
4311;SDS011;2169;49.086;9.284;2022-08-03T03:15:30;1.27;;;1.17;;
4311;SDS011;2169;49.086;9.284;2022-08-03T03:18:00;1.30;;;1.20;;
4311;SDS011;2169;49.086;9.284;2022-08-03T03:20:27;1.80;;;1.53;;
4311;SDS011;2169;49.086;9.284;2022-08-03T03:22:57;1.73;;;1.63;;
4311;SDS011;2169;49.086;9.284;2022-08-03T03:25:27;2.83;;;1.33;;
4311;SDS011;2169;49.086;9.284;2022-08-03T03:27:55;1.80;;;1.53;;
4311;SDS011;2169;49.086;9.284;2022-08-03T03:30:23;1.97;;;1.73;;
4311;SDS011;2169;49.086;9.284;2022-08-03T03:32:50;1.50;;;1.40;;
4311;SDS011;2169;49.086;9.284;2022-08-03T03:35:18;3.33;;;1.30;;
4311;SDS011;2169;49.086;9.284;2022-08-03T03:37:45;2.07;;;1.97;;
4311;SDS011;2169;49.086;9.284;2022-08-03T03:40:12;2.00;;;1.57;;
4311;SDS011;2169;49.086;9.284;2022-08-03T03:42:41;1.93;;;1.83;;
4311;SDS011;2169;49.086;9.284;2022-08-03T03:45:08;3.33;;;1.77;;
4311;SDS011;2169;49.086;9.284;2022-08-03T03:47:36;1.20;;;1.10;;
4311;SDS011;2169;49.086;9.284;2022-08-03T03:50:03;2.13;;;1.90;;
4311;SDS011;2169;49.086;9.284;2022-08-03T03:52:31;1.40;;;1.30;;
4311;SDS011;2169;49.086;9.284;2022-08-03T03:54:59;0.90;;;0.90;;
4311;SDS011;2169;49.086;9.284;2022-08-03T03:57:25;1.80;;;1.70;;
4311;SDS011;2169;49.086;9.284;2022-08-03T03:59:54;2.30;;;1.37;;
4311;SDS011;2169;49.086;9.284;2022-08-03T04:02:21;2.30;;;1.70;;
4311;SDS011;2169;49.086;9.284;2022-08-03T04:04:48;3.37;;;2.10;;
4311;SDS011;2169;49.086;9.284;2022-08-03T04:07:35;1.63;;;1.53;;
4311;SDS011;2169;49.086;9.284;2022-08-03T04:10:25;2.17;;;1.63;;
4311;SDS011;2169;49.086;9.284;2022-08-03T04:13:14;1.60;;;1.50;;
4311;SDS011;2169;49.086;9.284;2022-08-03T04:15:43;1.50;;;1.43;;
4311;SDS011;2169;49.086;9.284;2022-08-03T04:18:12;1.23;;;1.23;;
4311;SDS011;2169;49.086;9.284;2022-08-03T04:20:41;2.53;;;2.30;;
4311;SDS011;2169;49.086;9.284;2022-08-03T04:23:11;4.00;;;1.40;;
4311;SDS011;2169;49.086;9.284;2022-08-03T04:25:39;1.73;;;1.47;;
4311;SDS011;2169;49.086;9.284;2022-08-03T04:28:08;2.20;;;2.03;;
4311;SDS011;2169;49.086;9.284;2022-08-03T04:30:36;2.30;;;1.70;;
4311;SDS011;2169;49.086;9.284;2022-08-03T04:33:12;2.10;;;1.70;;
4311;SDS011;2169;49.086;9.284;2022-08-03T04:35:41;2.90;;;1.60;;
4311;SDS011;2169;49.086;9.284;2022-08-03T04:38:09;4.30;;;2.30;;
4311;SDS011;2169;49.086;9.284;2022-08-03T04:40:40;3.17;;;2.23;;
4311;SDS011;2169;49.086;9.284;2022-08-03T04:43:09;7.20;;;2.10;;
4311;SDS011;2169;49.086;9.284;2022-08-03T04:45:38;1.17;;;1.17;;
4311;SDS011;2169;49.086;9.284;2022-08-03T04:48:05;1.90;;;1.83;;
4311;SDS011;2169;49.086;9.284;2022-08-03T04:50:34;2.30;;;1.97;;
4311;SDS011;2169;49.086;9.284;2022-08-03T04:53:01;6.07;;;2.10;;
4311;SDS011;2169;49.086;9.284;2022-08-03T04:55:28;2.03;;;1.83;;
4311;SDS011;2169;49.086;9.284;2022-08-03T04:57:56;2.60;;;2.40;;
4311;SDS011;2169;49.086;9.284;2022-08-03T05:00:24;2.40;;;2.30;;
4311;SDS011;2169;49.086;9.284;2022-08-03T05:02:52;1.70;;;1.43;;
4311;SDS011;2169;49.086;9.284;2022-08-03T05:05:19;3.53;;;1.60;;
4311;SDS011;2169;49.086;9.284;2022-08-03T05:07:48;1.57;;;1.57;;
4311;SDS011;2169;49.086;9.284;2022-08-03T05:10:15;4.90;;;3.30;;
4311;SDS011;2169;49.086;9.284;2022-08-03T05:12:43;2.97;;;2.53;;
4311;SDS011;2169;49.086;9.284;2022-08-03T05:15:10;3.20;;;2.53;;
4311;SDS011;2169;49.086;9.284;2022-08-03T05:17:37;1.87;;;1.77;;
4311;SDS011;2169;49.086;9.284;2022-08-03T05:20:05;2.43;;;1.63;;
4311;SDS011;2169;49.086;9.284;2022-08-03T05:22:33;1.60;;;1.60;;
4311;SDS011;2169;49.086;9.284;2022-08-03T05:25:01;1.90;;;1.80;;
4311;SDS011;2169;49.086;9.284;2022-08-03T05:27:28;7.80;;;2.00;;
4311;SDS011;2169;49.086;9.284;2022-08-03T05:29:55;2.30;;;1.47;;
4311;SDS011;2169;49.086;9.284;2022-08-03T05:32:23;3.50;;;2.00;;
4311;SDS011;2169;49.086;9.284;2022-08-03T05:34:50;9.20;;;2.27;;
4311;SDS011;2169;49.086;9.284;2022-08-03T05:37:16;1.80;;;1.70;;
4311;SDS011;2169;49.086;9.284;2022-08-03T05:39:43;1.87;;;1.57;;
4311;SDS011;2169;49.086;9.284;2022-08-03T05:42:13;1.70;;;1.60;;
4311;SDS011;2169;49.086;9.284;2022-08-03T05:44:40;8.00;;;2.60;;
4311;SDS011;2169;49.086;9.284;2022-08-03T05:47:07;2.00;;;1.47;;
4311;SDS011;2169;49.086;9.284;2022-08-03T05:49:34;2.00;;;1.90;;
4311;SDS011;2169;49.086;9.284;2022-08-03T05:52:00;1.87;;;1.77;;
4311;SDS011;2169;49.086;9.284;2022-08-03T05:54:27;3.93;;;1.60;;
4311;SDS011;2169;49.086;9.284;2022-08-03T05:56:54;2.77;;;1.70;;
4311;SDS011;2169;49.086;9.284;2022-08-03T05:59:23;1.40;;;1.30;;
4311;SDS011;2169;49.086;9.284;2022-08-03T06:01:50;2.23;;;1.70;;
4311;SDS011;2169;49.086;9.284;2022-08-03T06:04:17;2.50;;;2.03;;
4311;SDS011;2169;49.086;9.284;2022-08-03T06:06:44;2.70;;;1.13;;
4311;SDS011;2169;49.086;9.284;2022-08-03T06:09:11;1.27;;;1.13;;
4311;SDS011;2169;49.086;9.284;2022-08-03T06:11:39;4.13;;;1.60;;
4311;SDS011;2169;49.086;9.284;2022-08-03T06:14:06;1.73;;;1.50;;
4311;SDS011;2169;49.086;9.284;2022-08-03T06:16:34;1.43;;;1.43;;
4311;SDS011;2169;49.086;9.284;2022-08-03T06:19:01;2.40;;;1.43;;
4311;SDS011;2169;49.086;9.284;2022-08-03T06:21:28;6.00;;;3.00;;
4311;SDS011;2169;49.086;9.284;2022-08-03T06:23:55;2.60;;;2.40;;
4311;SDS011;2169;49.086;9.284;2022-08-03T06:26:22;2.30;;;1.20;;
4311;SDS011;2169;49.086;9.284;2022-08-03T06:28:50;3.20;;;1.33;;
4311;SDS011;2169;49.086;9.284;2022-08-03T06:31:17;1.27;;;1.17;;
4311;SDS011;2169;49.086;9.284;2022-08-03T06:33:45;1.60;;;1.50;;
4311;SDS011;2169;49.086;9.284;2022-08-03T06:36:12;11.60;;;1.63;;
4311;SDS011;2169;49.086;9.284;2022-08-03T06:38:39;1.63;;;1.40;;
4311;SDS011;2169;49.086;9.284;2022-08-03T06:41:06;1.33;;;1.23;;
4311;SDS011;2169;49.086;9.284;2022-08-03T06:43:33;1.70;;;1.60;;
4311;SDS011;2169;49.086;9.284;2022-08-03T06:46:01;1.63;;;1.40;;
4311;SDS011;2169;49.086;9.284;2022-08-03T06:48:29;5.10;;;2.20;;
4311;SDS011;2169;49.086;9.284;2022-08-03T06:50:57;1.50;;;1.40;;
4311;SDS011;2169;49.086;9.284;2022-08-03T06:53:24;2.03;;;1.87;;
4311;SDS011;2169;49.086;9.284;2022-08-03T06:55:55;2.40;;;1.67;;
4311;SDS011;2169;49.086;9.284;2022-08-03T06:58:22;1.03;;;1.03;;
4311;SDS011;2169;49.086;9.284;2022-08-03T07:00:49;3.03;;;1.20;;
4311;SDS011;2169;49.086;9.284;2022-08-03T07:03:16;2.40;;;1.00;;
4311;SDS011;2169;49.086;9.284;2022-08-03T07:05:43;6.83;;;1.50;;
4311;SDS011;2169;49.086;9.284;2022-08-03T07:08:12;7.50;;;1.33;;
4311;SDS011;2169;49.086;9.284;2022-08-03T07:10:39;1.00;;;1.00;;
4311;SDS011;2169;49.086;9.284;2022-08-03T07:13:06;2.03;;;0.90;;
4311;SDS011;2169;49.086;9.284;2022-08-03T07:15:33;1.57;;;1.20;;
4311;SDS011;2169;49.086;9.284;2022-08-03T07:18:00;1.30;;;1.00;;
4311;SDS011;2169;49.086;9.284;2022-08-03T07:20:27;1.33;;;1.20;;
4311;SDS011;2169;49.086;9.284;2022-08-03T07:22:56;2.03;;;1.77;;
4311;SDS011;2169;49.086;9.284;2022-08-03T07:25:24;1.67;;;1.20;;
4311;SDS011;2169;49.086;9.284;2022-08-03T07:27:51;2.40;;;1.27;;
4311;SDS011;2169;49.086;9.284;2022-08-03T07:30:18;4.10;;;2.80;;
4311;SDS011;2169;49.086;9.284;2022-08-03T07:32:45;1.73;;;0.93;;
4311;SDS011;2169;49.086;9.284;2022-08-03T07:35:11;1.10;;;1.00;;
4311;SDS011;2169;49.086;9.284;2022-08-03T07:37:38;1.57;;;1.47;;
4311;SDS011;2169;49.086;9.284;2022-08-03T07:40:05;3.30;;;1.50;;
4311;SDS011;2169;49.086;9.284;2022-08-03T07:42:34;2.27;;;1.00;;
4311;SDS011;2169;49.086;9.284;2022-08-03T07:45:01;1.30;;;1.20;;
4311;SDS011;2169;49.086;9.284;2022-08-03T07:47:29;1.13;;;1.03;;
4311;SDS011;2169;49.086;9.284;2022-08-03T07:49:59;9.93;;;1.30;;
4311;SDS011;2169;49.086;9.284;2022-08-03T07:52:25;1.40;;;1.13;;
4311;SDS011;2169;49.086;9.284;2022-08-03T07:55:10;1.00;;;1.00;;
4311;SDS011;2169;49.086;9.284;2022-08-03T07:57:38;2.80;;;1.33;;
4311;SDS011;2169;49.086;9.284;2022-08-03T08:00:06;0.90;;;0.90;;
4311;SDS011;2169;49.086;9.284;2022-08-03T08:02:40;3.27;;;1.10;;
4311;SDS011;2169;49.086;9.284;2022-08-03T08:05:07;1.50;;;1.40;;
4311;SDS011;2169;49.086;9.284;2022-08-03T08:07:35;0.90;;;0.90;;
4311;SDS011;2169;49.086;9.284;2022-08-03T08:10:03;1.13;;;1.00;;
4311;SDS011;2169;49.086;9.284;2022-08-03T08:12:30;2.40;;;0.80;;
4311;SDS011;2169;49.086;9.284;2022-08-03T08:14:59;0.80;;;0.80;;
4311;SDS011;2169;49.086;9.284;2022-08-03T08:17:25;0.80;;;0.80;;
4311;SDS011;2169;49.086;9.284;2022-08-03T08:19:52;1.23;;;0.73;;
4311;SDS011;2169;49.086;9.284;2022-08-03T08:22:19;0.80;;;0.80;;
4311;SDS011;2169;49.086;9.284;2022-08-03T08:24:47;5.80;;;0.90;;
4311;SDS011;2169;49.086;9.284;2022-08-03T08:27:14;1.10;;;1.00;;
4311;SDS011;2169;49.086;9.284;2022-08-03T08:29:41;0.83;;;0.83;;
4311;SDS011;2169;49.086;9.284;2022-08-03T08:32:09;1.90;;;0.73;;
4311;SDS011;2169;49.086;9.284;2022-08-03T08:34:38;1.00;;;1.00;;
4311;SDS011;2169;49.086;9.284;2022-08-03T08:37:05;0.60;;;0.60;;
4311;SDS011;2169;49.086;9.284;2022-08-03T08:39:32;0.80;;;0.80;;
4311;SDS011;2169;49.086;9.284;2022-08-03T08:41:59;3.60;;;0.83;;
4311;SDS011;2169;49.086;9.284;2022-08-03T08:44:25;1.37;;;0.90;;
4311;SDS011;2169;49.086;9.284;2022-08-03T08:46:54;0.80;;;0.70;;
4311;SDS011;2169;49.086;9.284;2022-08-03T08:49:24;1.00;;;0.90;;
4311;SDS011;2169;49.086;9.284;2022-08-03T08:51:53;1.00;;;0.87;;
4311;SDS011;2169;49.086;9.284;2022-08-03T08:54:21;4.50;;;0.60;;
4311;SDS011;2169;49.086;9.284;2022-08-03T08:56:50;2.50;;;1.00;;
4311;SDS011;2169;49.086;9.284;2022-08-03T08:59:19;15.63;;;1.07;;
4311;SDS011;2169;49.086;9.284;2022-08-03T09:01:47;2.00;;;0.70;;
4311;SDS011;2169;49.086;9.284;2022-08-03T09:04:17;0.80;;;0.80;;
4311;SDS011;2169;49.086;9.284;2022-08-03T09:06:45;0.83;;;0.60;;
4311;SDS011;2169;49.086;9.284;2022-08-03T09:09:12;2.10;;;0.60;;
4311;SDS011;2169;49.086;9.284;2022-08-03T09:11:41;0.67;;;0.67;;
4311;SDS011;2169;49.086;9.284;2022-08-03T09:14:08;0.77;;;0.77;;
4311;SDS011;2169;49.086;9.284;2022-08-03T09:16:35;1.90;;;0.50;;
4311;SDS011;2169;49.086;9.284;2022-08-03T09:19:20;0.60;;;0.60;;
4311;SDS011;2169;49.086;9.284;2022-08-03T09:21:48;1.33;;;0.90;;
4311;SDS011;2169;49.086;9.284;2022-08-03T09:24:36;0.50;;;0.50;;
4311;SDS011;2169;49.086;9.284;2022-08-03T09:27:04;1.57;;;1.07;;
4311;SDS011;2169;49.086;9.284;2022-08-03T09:29:33;1.27;;;0.67;;
4311;SDS011;2169;49.086;9.284;2022-08-03T09:32:00;0.63;;;0.63;;
4311;SDS011;2169;49.086;9.284;2022-08-03T09:34:28;0.63;;;0.50;;
4311;SDS011;2169;49.086;9.284;2022-08-03T09:36:59;0.70;;;0.60;;
4311;SDS011;2169;49.086;9.284;2022-08-03T09:39:26;1.17;;;0.60;;
4311;SDS011;2169;49.086;9.284;2022-08-03T09:42:05;2.73;;;0.80;;
4311;SDS011;2169;49.086;9.284;2022-08-03T09:44:34;1.07;;;0.60;;
4311;SDS011;2169;49.086;9.284;2022-08-03T09:47:02;1.93;;;0.50;;
4311;SDS011;2169;49.086;9.284;2022-08-03T09:49:30;1.43;;;1.03;;
4311;SDS011;2169;49.086;9.284;2022-08-03T09:52:00;1.20;;;0.67;;
4311;SDS011;2169;49.086;9.284;2022-08-03T09:54:38;2.20;;;0.70;;
4311;SDS011;2169;49.086;9.284;2022-08-03T09:57:05;1.43;;;1.17;;
4311;SDS011;2169;49.086;9.284;2022-08-03T09:59:35;1.43;;;0.70;;
4311;SDS011;2169;49.086;9.284;2022-08-03T10:02:02;8.63;;;1.07;;
4311;SDS011;2169;49.086;9.284;2022-08-03T10:04:29;1.73;;;0.70;;
4311;SDS011;2169;49.086;9.284;2022-08-03T10:07:04;0.60;;;0.60;;
4311;SDS011;2169;49.086;9.284;2022-08-03T10:09:33;0.73;;;0.70;;
4311;SDS011;2169;49.086;9.284;2022-08-03T10:12:06;0.70;;;0.67;;
4311;SDS011;2169;49.086;9.284;2022-08-03T10:14:43;0.93;;;0.67;;
4311;SDS011;2169;49.086;9.284;2022-08-03T10:17:11;0.63;;;0.60;;
4311;SDS011;2169;49.086;9.284;2022-08-03T10:19:42;0.70;;;0.70;;
4311;SDS011;2169;49.086;9.284;2022-08-03T10:22:14;0.67;;;0.67;;
4311;SDS011;2169;49.086;9.284;2022-08-03T10:24:47;0.87;;;0.77;;
4311;SDS011;2169;49.086;9.284;2022-08-03T10:27:18;0.70;;;0.70;;
4311;SDS011;2169;49.086;9.284;2022-08-03T10:29:49;0.60;;;0.60;;
4311;SDS011;2169;49.086;9.284;2022-08-03T10:32:20;0.90;;;0.60;;
4311;SDS011;2169;49.086;9.284;2022-08-03T10:34:51;2.50;;;1.20;;
4311;SDS011;2169;49.086;9.284;2022-08-03T10:37:26;0.80;;;0.80;;
4311;SDS011;2169;49.086;9.284;2022-08-03T10:39:57;0.60;;;0.60;;
4311;SDS011;2169;49.086;9.284;2022-08-03T10:42:27;0.97;;;0.83;;
4311;SDS011;2169;49.086;9.284;2022-08-03T10:44:59;2.67;;;2.47;;
4311;SDS011;2169;49.086;9.284;2022-08-03T10:47:29;1.17;;;0.53;;
4311;SDS011;2169;49.086;9.284;2022-08-03T10:49:57;0.80;;;0.80;;
4311;SDS011;2169;49.086;9.284;2022-08-03T10:52:26;1.17;;;0.60;;
4311;SDS011;2169;49.086;9.284;2022-08-03T10:54:53;0.50;;;0.50;;
4311;SDS011;2169;49.086;9.284;2022-08-03T10:57:43;0.60;;;0.60;;
4311;SDS011;2169;49.086;9.284;2022-08-03T11:00:12;0.53;;;0.53;;
4311;SDS011;2169;49.086;9.284;2022-08-03T11:05:33;2.10;;;0.50;;
4311;SDS011;2169;49.086;9.284;2022-08-03T11:11:01;0.60;;;0.60;;
4311;SDS011;2169;49.086;9.284;2022-08-03T11:13:56;0.70;;;0.70;;
4311;SDS011;2169;49.086;9.284;2022-08-03T11:16:23;1.90;;;0.50;;
4311;SDS011;2169;49.086;9.284;2022-08-03T11:18:56;0.60;;;0.60;;
4311;SDS011;2169;49.086;9.284;2022-08-03T11:27:25;0.60;;;0.60;;
4311;SDS011;2169;49.086;9.284;2022-08-03T11:29:58;0.50;;;0.50;;
4311;SDS011;2169;49.086;9.284;2022-08-03T11:35:26;1.87;;;1.07;;
4311;SDS011;2169;49.086;9.284;2022-08-03T11:38:01;0.87;;;0.80;;
4311;SDS011;2169;49.086;9.284;2022-08-03T11:40:37;0.57;;;0.57;;
4311;SDS011;2169;49.086;9.284;2022-08-03T11:43:06;1.00;;;0.50;;
4311;SDS011;2169;49.086;9.284;2022-08-03T11:45:34;2.03;;;0.70;;
4311;SDS011;2169;49.086;9.284;2022-08-03T11:48:12;0.50;;;0.50;;
4311;SDS011;2169;49.086;9.284;2022-08-03T11:50:41;3.40;;;0.70;;
4311;SDS011;2169;49.086;9.284;2022-08-03T11:53:15;0.47;;;0.47;;
4311;SDS011;2169;49.086;9.284;2022-08-03T11:55:46;1.80;;;0.67;;
4311;SDS011;2169;49.086;9.284;2022-08-03T11:58:14;2.07;;;0.67;;
4311;SDS011;2169;49.086;9.284;2022-08-03T12:00:42;0.70;;;0.60;;
4311;SDS011;2169;49.086;9.284;2022-08-03T12:03:09;0.60;;;0.60;;
4311;SDS011;2169;49.086;9.284;2022-08-03T12:05:42;1.67;;;0.60;;
4311;SDS011;2169;49.086;9.284;2022-08-03T12:08:12;0.50;;;0.50;;
4311;SDS011;2169;49.086;9.284;2022-08-03T12:10:47;0.60;;;0.60;;
4311;SDS011;2169;49.086;9.284;2022-08-03T12:13:15;1.50;;;0.60;;
4311;SDS011;2169;49.086;9.284;2022-08-03T12:15:42;0.50;;;0.50;;
4311;SDS011;2169;49.086;9.284;2022-08-03T12:18:16;1.37;;;0.70;;
4311;SDS011;2169;49.086;9.284;2022-08-03T12:20:44;0.77;;;0.60;;
4311;SDS011;2169;49.086;9.284;2022-08-03T12:23:12;0.60;;;0.60;;
4311;SDS011;2169;49.086;9.284;2022-08-03T12:25:39;0.60;;;0.50;;
4311;SDS011;2169;49.086;9.284;2022-08-03T12:28:10;0.40;;;0.40;;
4311;SDS011;2169;49.086;9.284;2022-08-03T12:30:40;0.50;;;0.50;;
4311;SDS011;2169;49.086;9.284;2022-08-03T12:33:11;0.53;;;0.50;;
4311;SDS011;2169;49.086;9.284;2022-08-03T12:35:50;0.60;;;0.60;;
4311;SDS011;2169;49.086;9.284;2022-08-03T12:38:37;3.80;;;0.73;;
4311;SDS011;2169;49.086;9.284;2022-08-03T12:41:09;0.83;;;0.70;;
4311;SDS011;2169;49.086;9.284;2022-08-03T12:43:45;0.73;;;0.60;;
4311;SDS011;2169;49.086;9.284;2022-08-03T12:46:15;0.70;;;0.70;;
4311;SDS011;2169;49.086;9.284;2022-08-03T12:48:58;0.67;;;0.67;;
4311;SDS011;2169;49.086;9.284;2022-08-03T12:51:31;0.60;;;0.60;;
4311;SDS011;2169;49.086;9.284;2022-08-03T12:54:01;0.70;;;0.50;;
4311;SDS011;2169;49.086;9.284;2022-08-03T12:56:28;1.83;;;0.60;;
4311;SDS011;2169;49.086;9.284;2022-08-03T12:58:56;0.60;;;0.60;;
4311;SDS011;2169;49.086;9.284;2022-08-03T13:01:23;0.60;;;0.60;;
4311;SDS011;2169;49.086;9.284;2022-08-03T13:03:51;0.60;;;0.60;;
4311;SDS011;2169;49.086;9.284;2022-08-03T13:06:22;0.50;;;0.50;;
4311;SDS011;2169;49.086;9.284;2022-08-03T13:12:05;0.70;;;0.70;;
4311;SDS011;2169;49.086;9.284;2022-08-03T13:14:34;0.50;;;0.50;;
4311;SDS011;2169;49.086;9.284;2022-08-03T13:17:01;1.90;;;0.60;;
4311;SDS011;2169;49.086;9.284;2022-08-03T13:19:28;0.60;;;0.50;;
4311;SDS011;2169;49.086;9.284;2022-08-03T13:21:56;0.80;;;0.77;;
4311;SDS011;2169;49.086;9.284;2022-08-03T13:24:26;0.60;;;0.50;;
4311;SDS011;2169;49.086;9.284;2022-08-03T13:26:54;0.60;;;0.60;;
4311;SDS011;2169;49.086;9.284;2022-08-03T13:29:21;0.57;;;0.57;;
4311;SDS011;2169;49.086;9.284;2022-08-03T13:31:57;0.40;;;0.40;;
4311;SDS011;2169;49.086;9.284;2022-08-03T13:34:25;0.50;;;0.50;;
4311;SDS011;2169;49.086;9.284;2022-08-03T13:36:52;0.60;;;0.60;;
4311;SDS011;2169;49.086;9.284;2022-08-03T13:39:19;1.63;;;0.60;;
4311;SDS011;2169;49.086;9.284;2022-08-03T13:41:47;1.47;;;0.60;;
4311;SDS011;2169;49.086;9.284;2022-08-03T13:44:14;0.60;;;0.60;;
4311;SDS011;2169;49.086;9.284;2022-08-03T13:46:43;1.27;;;1.17;;
4311;SDS011;2169;49.086;9.284;2022-08-03T13:49:11;7.40;;;0.90;;
4311;SDS011;2169;49.086;9.284;2022-08-03T13:51:38;2.10;;;0.70;;
4311;SDS011;2169;49.086;9.284;2022-08-03T13:54:05;1.40;;;1.27;;
4311;SDS011;2169;49.086;9.284;2022-08-03T13:56:32;0.70;;;0.70;;
4311;SDS011;2169;49.086;9.284;2022-08-03T13:58:59;0.50;;;0.50;;
4311;SDS011;2169;49.086;9.284;2022-08-03T14:01:26;0.43;;;0.43;;
4311;SDS011;2169;49.086;9.284;2022-08-03T14:03:53;1.40;;;0.50;;
4311;SDS011;2169;49.086;9.284;2022-08-03T14:06:23;0.53;;;0.53;;
4311;SDS011;2169;49.086;9.284;2022-08-03T14:08:50;1.60;;;0.70;;
4311;SDS011;2169;49.086;9.284;2022-08-03T14:11:17;0.97;;;0.50;;
4311;SDS011;2169;49.086;9.284;2022-08-03T14:13:44;0.80;;;0.80;;
4311;SDS011;2169;49.086;9.284;2022-08-03T14:16:11;2.20;;;0.77;;
4311;SDS011;2169;49.086;9.284;2022-08-03T14:18:38;0.93;;;0.53;;
4311;SDS011;2169;49.086;9.284;2022-08-03T14:21:06;0.73;;;0.60;;
4311;SDS011;2169;49.086;9.284;2022-08-03T14:23:34;0.50;;;0.50;;
4311;SDS011;2169;49.086;9.284;2022-08-03T14:26:02;0.60;;;0.60;;
4311;SDS011;2169;49.086;9.284;2022-08-03T14:28:30;4.40;;;0.70;;
4311;SDS011;2169;49.086;9.284;2022-08-03T14:30:59;2.00;;;0.60;;
4311;SDS011;2169;49.086;9.284;2022-08-03T14:33:26;1.87;;;1.77;;
4311;SDS011;2169;49.086;9.284;2022-08-03T14:35:54;0.97;;;0.60;;
4311;SDS011;2169;49.086;9.284;2022-08-03T14:38:23;0.60;;;0.50;;
4311;SDS011;2169;49.086;9.284;2022-08-03T14:41:09;1.73;;;0.60;;
4311;SDS011;2169;49.086;9.284;2022-08-03T14:43:36;0.50;;;0.50;;
4311;SDS011;2169;49.086;9.284;2022-08-03T14:46:03;0.53;;;0.53;;
4311;SDS011;2169;49.086;9.284;2022-08-03T14:48:33;0.70;;;0.70;;
4311;SDS011;2169;49.086;9.284;2022-08-03T14:51:17;0.50;;;0.50;;
4311;SDS011;2169;49.086;9.284;2022-08-03T14:53:44;0.50;;;0.50;;
4311;SDS011;2169;49.086;9.284;2022-08-03T14:56:12;0.57;;;0.50;;
4311;SDS011;2169;49.086;9.284;2022-08-03T14:58:39;0.70;;;0.70;;
4311;SDS011;2169;49.086;9.284;2022-08-03T15:01:06;1.23;;;0.70;;
4311;SDS011;2169;49.086;9.284;2022-08-03T15:03:33;2.40;;;0.60;;
4311;SDS011;2169;49.086;9.284;2022-08-03T15:06:02;0.70;;;0.70;;
4311;SDS011;2169;49.086;9.284;2022-08-03T15:08:32;1.60;;;0.60;;
4311;SDS011;2169;49.086;9.284;2022-08-03T15:10:59;3.13;;;0.60;;
4311;SDS011;2169;49.086;9.284;2022-08-03T15:13:27;0.60;;;0.60;;
4311;SDS011;2169;49.086;9.284;2022-08-03T15:15:54;0.97;;;0.87;;
4311;SDS011;2169;49.086;9.284;2022-08-03T15:18:21;0.60;;;0.60;;
4311;SDS011;2169;49.086;9.284;2022-08-03T15:20:48;0.60;;;0.60;;
4311;SDS011;2169;49.086;9.284;2022-08-03T15:23:16;0.50;;;0.50;;
4311;SDS011;2169;49.086;9.284;2022-08-03T15:25:43;0.73;;;0.73;;
4311;SDS011;2169;49.086;9.284;2022-08-03T15:28:11;2.77;;;0.50;;
4311;SDS011;2169;49.086;9.284;2022-08-03T15:30:39;0.73;;;0.50;;
4311;SDS011;2169;49.086;9.284;2022-08-03T15:33:06;0.73;;;0.60;;
4311;SDS011;2169;49.086;9.284;2022-08-03T15:35:33;2.43;;;0.60;;
4311;SDS011;2169;49.086;9.284;2022-08-03T15:38:00;0.90;;;0.70;;
4311;SDS011;2169;49.086;9.284;2022-08-03T15:40:27;1.33;;;0.60;;
4311;SDS011;2169;49.086;9.284;2022-08-03T15:42:54;1.13;;;0.60;;
4311;SDS011;2169;49.086;9.284;2022-08-03T15:45:21;2.87;;;0.90;;